Time;durP1;ratioP1;P1;durP2;ratioP2;P2;SDS_P1;SDS_P2;PMS_P1;PMS_P2;Temp;Humidity;BMP_temperature;BMP_pressure;BME280_temperature;BME280_humidity;BME280_pressure;Samples;Min_cycle;Max_cycle;Signal;HPM_P1;HPM_P2
2023/09/19 00:00:40;;;;;;;18.00;12.20;;;;;;;15.38;55.74;99792.33;107573;1257;71419;-39
2023/09/19 00:03:08;;;;;;;17.90;12.10;;;;;;;15.35;55.83;99793.95;107467;1257;60531;-39
2023/09/19 00:05:44;;;;;;;14.80;11.40;;;;;;;15.32;55.96;99794.00;107511;1254;60517;-39
2023/09/19 00:08:15;;;;;;;18.80;12.10;;;;;;;15.29;56.06;99796.57;107497;1259;73888;-39
2023/09/19 00:10:43;;;;;;;19.00;12.70;;;;;;;15.26;56.06;99798.71;107476;1254;66612;-39
2023/09/19 00:13:14;;;;;;;15.60;11.40;;;;;;;15.23;56.21;99800.27;107461;1258;72674;-39
2023/09/19 00:15:50;;;;;;;20.50;12.20;;;;;;;15.19;56.29;99798.92;107512;1254;60335;-40
2023/09/19 00:18:20;;;;;;;18.90;12.30;;;;;;;15.16;56.36;99794.13;107466;1254;60634;-39
2023/09/19 00:20:49;;;;;;;25.70;12.50;;;;;;;15.14;56.34;99801.61;107479;1254;72981;-39
2023/09/19 00:23:19;;;;;;;17.10;11.60;;;;;;;15.12;56.23;99800.50;107451;1254;67598;-40
2023/09/19 00:25:48;;;;;;;16.60;11.80;;;;;;;15.12;56.27;99801.13;107458;1255;72736;-39
2023/09/19 00:28:18;;;;;;;16.90;12.00;;;;;;;15.10;56.36;99802.43;107511;1258;60467;-39
2023/09/19 00:30:51;;;;;;;13.60;11.50;;;;;;;15.10;56.31;99803.38;107483;1254;60470;-39
2023/09/19 00:33:21;;;;;;;16.60;12.20;;;;;;;15.09;56.22;99801.73;107482;1254;72560;-38
2023/09/19 00:35:49;;;;;;;16.20;12.10;;;;;;;15.09;56.30;99803.92;107474;1254;67774;-38
2023/09/19 00:38:18;;;;;;;17.40;12.00;;;;;;;15.08;56.30;99806.02;107362;1254;72799;-39
2023/09/19 00:40:46;;;;;;;15.20;12.00;;;;;;;15.07;56.24;99808.02;107496;1257;60430;-38
2023/09/19 00:43:14;;;;;;;17.20;12.10;;;;;;;15.08;56.27;99806.47;107492;1253;60450;-38
2023/09/19 00:45:43;;;;;;;16.00;11.40;;;;;;;15.08;56.26;99807.27;107484;1254;73861;-38
2023/09/19 00:48:11;;;;;;;13.20;11.60;;;;;;;15.08;56.26;99804.52;107480;1254;66432;-38
2023/09/19 00:50:42;;;;;;;15.00;11.60;;;;;;;15.09;56.20;99802.89;107473;1254;71059;-38
2023/09/19 00:53:10;;;;;;;;;;;;;;;15.08;56.18;99804.30;107305;1257;60437;-38
2023/09/19 00:55:37;;;;;;;15.10;11.50;;;;;;;15.07;56.17;99803.90;107460;1254;60419;-38
2023/09/19 00:58:06;;;;;;;18.60;11.20;;;;;;;15.05;56.43;99802.10;107302;1253;73852;-39
2023/09/19 01:00:34;;;;;;;21.90;11.70;;;;;;;15.04;56.38;99804.35;107457;1254;67590;-38
2023/09/19 01:03:03;;;;;;;15.80;11.90;;;;;;;15.04;56.52;99799.83;107281;1254;72463;-39
2023/09/19 01:05:30;;;;;;;14.80;11.80;;;;;;;15.03;56.38;99796.92;107499;1257;60447;-39
2023/09/19 01:07:58;;;;;;;14.70;11.70;;;;;;;15.04;56.35;99799.43;107464;1254;60368;-39
2023/09/19 01:10:26;;;;;;;17.20;11.60;;;;;;;15.04;56.34;99794.98;107514;1254;72583;-39
2023/09/19 01:13:17;;;;;;;15.60;11.80;;;;;;;15.04;56.29;99794.13;107502;1254;66763;-39
2023/09/19 01:15:47;;;;;;;;;;;;;;;15.02;56.46;99791.92;107406;1254;72663;-39
2023/09/19 01:18:24;;;;;;;15.80;11.00;;;;;;;15.01;56.62;99789.96;107481;1254;60402;-39
2023/09/19 01:21:28;;;;;;;17.00;11.30;;;;;;;14.98;56.63;99786.98;107481;1254;60522;-39
2023/09/19 01:24:09;;;;;;;16.40;11.10;;;;;;;14.98;56.67;99782.92;107383;1253;72646;-39
2023/09/19 01:27:04;;;;;;;18.80;11.50;;;;;;;14.97;56.85;99784.15;107501;1254;66782;-39
2023/09/19 01:29:40;;;;;;;16.20;11.20;;;;;;;14.95;56.98;99785.40;107420;1259;72737;-39
2023/09/19 01:32:09;;;;;;;15.60;11.80;;;;;;;14.95;56.94;99786.25;107298;1254;60472;-39
2023/09/19 01:34:47;;;;;;;;;;;;;;;14.94;57.06;99785.15;107480;1253;59279;-39
2023/09/19 01:37:20;;;;;;;17.20;11.60;;;;;;;14.93;56.97;99789.96;107306;1254;73901;-38
2023/09/19 01:39:50;;;;;;;15.20;11.20;;;;;;;14.90;57.04;99783.16;107494;1254;67582;-39
2023/09/19 01:42:26;;;;;;;15.10;11.00;;;;;;;14.88;57.24;99782.76;107459;1254;71781;-38
2023/09/19 01:45:18;;;;;;;16.20;11.20;;;;;;;14.86;57.25;99779.79;107447;1254;60204;-39
2023/09/19 01:47:56;;;;;;;15.50;11.30;;;;;;;14.84;57.19;99778.77;107476;1254;60067;-39
2023/09/19 01:50:40;;;;;;;17.10;11.40;;;;;;;14.83;57.16;99781.63;107524;1254;72633;-40
2023/09/19 01:53:28;;;;;;;15.90;11.50;;;;;;;14.81;57.23;99777.64;107474;1254;67632;-40
2023/09/19 01:55:55;;;;;;;15.80;11.50;;;;;;;14.80;57.24;99778.41;107471;1256;72661;-40
2023/09/19 01:58:34;;;;;;;15.90;12.00;;;;;;;14.79;57.34;99777.23;107312;1255;59908;-40
2023/09/19 02:01:03;;;;;;;14.40;11.40;;;;;;;14.77;57.26;99777.11;107380;1254;60309;-40
2023/09/19 02:03:31;;;;;;;15.90;11.20;;;;;;;14.75;57.33;99775.16;107398;1254;73912;-40
2023/09/19 02:05:58;;;;;;;17.10;11.90;;;;;;;14.73;57.33;99770.38;107340;1253;66874;-40
2023/09/19 02:08:26;;;;;;;15.60;10.80;;;;;;;14.71;57.48;99768.66;107356;1254;71473;-40
2023/09/19 02:10:53;;;;;;;14.60;11.20;;;;;;;14.69;57.56;99760.29;107408;1259;60369;-40
2023/09/19 02:13:23;;;;;;;19.30;11.10;;;;;;;14.67;57.62;99757.70;107529;1254;60534;-40
2023/09/19 02:15:51;;;;;;;16.70;11.50;;;;;;;14.65;57.68;99758.00;107520;1253;74938;-40
2023/09/19 02:18:19;;;;;;;15.10;11.60;;;;;;;14.57;57.66;99747.25;107497;1254;66535;-40
2023/09/19 02:20:47;;;;;;;16.90;11.50;;;;;;;14.59;57.81;99751.01;107437;1256;71464;-40
2023/09/19 02:23:15;;;;;;;18.30;12.50;;;;;;;14.56;57.90;99749.35;107431;1254;60597;-40
2023/09/19 02:25:43;;;;;;;17.20;11.40;;;;;;;14.53;57.93;99747.30;107442;1254;60619;-40
2023/09/19 02:28:11;;;;;;;16.20;11.50;;;;;;;14.50;58.08;99744.23;107445;1254;73845;-40
2023/09/19 02:30:40;;;;;;;17.00;11.90;;;;;;;14.48;58.14;99740.99;107512;1259;66657;-38
2023/09/19 02:33:08;;;;;;;15.70;11.60;;;;;;;14.46;58.12;99736.86;107446;1254;72727;-38
2023/09/19 02:35:36;;;;;;;16.60;12.40;;;;;;;14.42;58.23;99739.71;107542;1254;60350;-38
2023/09/19 02:38:06;;;;;;;17.40;11.90;;;;;;;14.39;58.34;99736.80;107463;1254;60897;-38
2023/09/19 02:40:35;;;;;;;13.60;10.80;;;;;;;14.37;58.47;99732.41;107440;1254;73856;-39
2023/09/19 02:43:04;;;;;;;14.90;11.60;;;;;;;14.35;58.61;99730.98;107476;1254;66766;-39
2023/09/19 02:45:32;;;;;;;14.20;12.40;;;;;;;14.27;58.62;99720.36;107435;1254;72694;-39
2023/09/19 02:48:02;;;;;;;18.70;12.10;;;;;;;14.31;58.75;99728.98;107472;1254;60457;-39
2023/09/19 02:50:30;;;;;;;16.30;12.00;;;;;;;14.29;58.81;99730.82;107461;1259;60351;-39
2023/09/19 02:52:58;;;;;;;14.20;10.70;;;;;;;14.27;58.92;99726.75;107500;1254;73899;-40
2023/09/19 02:55:26;;;;;;;15.60;11.90;;;;;;;14.23;59.16;99720.63;107391;1254;66829;-39
2023/09/19 02:57:54;;;;;;;15.80;11.10;;;;;;;14.21;59.13;99720.86;107501;1257;71200;-39
2023/09/19 03:00:22;;;;;;;13.30;11.00;;;;;;;14.19;59.29;99718.57;107439;1257;60411;-39
2023/09/19 03:02:51;;;;;;;13.70;11.80;;;;;;;14.17;59.44;99714.66;107458;1254;60175;-39
2023/09/19 03:05:20;;;;;;;15.20;11.40;;;;;;;14.16;59.49;99714.17;107233;1253;72719;-39
2023/09/19 03:07:52;;;;;;;14.60;11.40;;;;;;;14.14;59.49;99712.27;107415;1259;67912;-39
2023/09/19 03:10:21;;;;;;;15.20;11.20;;;;;;;14.13;59.67;99710.96;107435;1254;71454;-40
2023/09/19 03:12:49;;;;;;;17.60;12.00;;;;;;;14.11;59.74;99707.11;107320;1254;60482;-39
2023/09/19 03:15:21;;;;;;;13.40;11.30;;;;;;;14.10;59.80;99708.65;107443;1254;60507;-41
2023/09/19 03:17:53;;;;;;;14.40;10.70;;;;;;;14.08;59.96;99706.08;107450;1253;72588;-40
2023/09/19 03:20:23;;;;;;;15.60;10.50;;;;;;;14.07;60.05;99705.84;107455;1254;66451;-40
2023/09/19 03:22:51;;;;;;;18.70;10.40;;;;;;;14.09;60.14;99706.09;107418;1254;71474;-38
2023/09/19 03:25:23;;;;;;;15.00;10.30;;;;;;;14.15;60.19;99705.30;107439;1256;60463;-38
2023/09/19 03:27:52;;;;;;;16.10;10.80;;;;;;;14.17;60.16;99702.36;107468;1253;59661;-39
2023/09/19 03:30:20;;;;;;;19.50;11.20;;;;;;;14.20;60.18;99704.55;107284;1254;72587;-39
2023/09/19 03:32:49;;;;;;;13.70;10.60;;;;;;;14.22;60.24;99701.54;107352;1253;66766;-39
2023/09/19 03:35:19;;;;;;;12.10;10.50;;;;;;;14.21;60.13;99699.52;107412;1259;71386;-39
2023/09/19 03:37:46;;;;;;;17.00;10.70;;;;;;;14.21;60.14;99696.55;107275;1254;60451;-39
2023/09/19 03:40:15;;;;;;;16.80;10.50;;;;;;;14.20;60.18;99697.46;107414;1253;60342;-39
2023/09/19 03:42:43;;;;;;;11.60;10.30;;;;;;;14.19;60.23;99700.65;107488;1253;72609;-39
2023/09/19 03:45:13;;;;;;;13.50;10.60;;;;;;;14.17;60.20;99698.92;107457;1253;66426;-39
2023/09/19 03:47:47;;;;;;;14.60;10.80;;;;;;;14.14;60.34;99698.27;107318;1253;72814;-39
2023/09/19 03:50:17;;;;;;;13.40;11.00;;;;;;;14.11;60.50;99698.46;107395;1255;60444;-39
2023/09/19 03:52:45;;;;;;;14.50;10.80;;;;;;;14.09;60.56;99699.77;107415;1253;60329;-39
2023/09/19 03:55:13;;;;;;;14.80;11.20;;;;;;;14.07;60.61;99697.73;107300;1253;73858;-39
2023/09/19 03:57:41;;;;;;;12.50;10.60;;;;;;;14.04;60.74;99696.37;107438;1253;66875;-39
2023/09/19 04:00:14;;;;;;;17.60;11.00;;;;;;;14.02;61.00;99696.36;107442;1259;70273;-39
2023/09/19 04:02:42;;;;;;;16.20;10.60;;;;;;;13.99;61.00;99692.81;107289;1260;60097;-38
2023/09/19 04:05:10;;;;;;;15.00;11.40;;;;;;;13.98;61.17;99695.53;107428;1253;60677;-38
2023/09/19 04:07:38;;;;;;;13.30;10.60;;;;;;;13.95;61.33;99694.17;107282;1253;74184;-38
2023/09/19 04:10:09;;;;;;;14.60;10.00;;;;;;;13.97;61.38;99694.83;107422;1254;67996;-38
2023/09/19 04:12:36;;;;;;;13.50;10.10;;;;;;;14.02;61.50;99688.33;107377;1253;71749;-38
2023/09/19 04:15:05;;;;;;;13.00;10.80;;;;;;;14.04;61.56;99690.54;107370;1258;60566;-38
2023/09/19 04:17:33;;;;;;;12.60;10.10;;;;;;;14.06;61.71;99696.70;107419;1254;60559;-39
2023/09/19 04:20:03;;;;;;;12.30;9.50;;;;;;;14.09;61.71;99693.54;107426;1253;72869;-38
2023/09/19 04:22:31;;;;;;;15.40;9.80;;;;;;;14.13;61.68;99696.01;107305;1253;66430;-39
2023/09/19 04:24:59;;;;;;;12.90;10.40;;;;;;;14.16;61.71;99695.64;107234;1256;71475;-38
2023/09/19 04:27:26;;;;;;;15.10;10.20;;;;;;;14.19;61.88;99699.41;107310;1254;60441;-38
2023/09/19 04:29:58;;;;;;;13.50;10.50;;;;;;;14.22;61.86;99700.61;107384;1254;60428;-38
2023/09/19 04:32:28;;;;;;;13.70;9.90;;;;;;;14.25;61.93;99696.58;107252;1253;149642;-39
2023/09/19 04:36:09;;;;;;;12.40;10.20;;;;;;;14.29;62.13;99696.63;104087;1292;601130;-38
2023/09/19 04:38:57;;;;;;;14.90;10.10;;;;;;;14.33;62.26;99700.32;106571;1270;59738;-38
2023/09/19 04:41:25;;;;;;;12.00;9.40;;;;;;;14.38;62.33;99696.48;106601;1266;59198;-39
2023/09/19 04:43:52;;;;;;;17.20;9.40;;;;;;;14.45;62.37;99696.40;106607;1266;71034;-39
2023/09/19 04:46:20;;;;;;;14.20;9.70;;;;;;;14.54;62.39;99694.52;106620;1267;67566;-40
2023/09/19 04:48:48;;;;;;;14.80;9.10;;;;;;;14.62;62.45;99688.74;106559;1264;148656;-40
2023/09/19 04:51:16;;;;;;;14.30;10.10;;;;;;;14.68;62.44;99684.97;106708;1266;60167;-39
2023/09/19 04:53:44;;;;;;;13.80;10.80;;;;;;;14.74;62.59;99681.81;106723;1264;60129;-40
2023/09/19 04:56:11;;;;;;;15.70;9.90;;;;;;;14.79;62.70;99684.73;106735;1264;71909;-40
2023/09/19 04:58:39;;;;;;;12.80;9.50;;;;;;;14.84;62.65;99685.00;106818;1263;67678;-40
2023/09/19 05:01:11;;;;;;;14.20;10.20;;;;;;;14.89;62.78;99683.94;106690;1264;72668;-40
2023/09/19 05:03:39;;;;;;;12.50;9.80;;;;;;;14.94;62.98;99685.16;106706;1266;60044;-39
2023/09/19 05:06:06;;;;;;;16.90;10.40;;;;;;;14.98;63.08;99685.58;106817;1263;59791;-40
2023/09/19 05:08:34;;;;;;;12.80;9.60;;;;;;;15.02;63.27;99678.88;106831;1260;71860;-40
2023/09/19 05:11:02;;;;;;;13.60;8.80;;;;;;;15.10;63.19;99679.55;106825;1260;66662;-40
2023/09/19 05:13:30;;;;;;;13.00;9.80;;;;;;;15.20;63.00;99680.08;106960;1260;72718;-39
2023/09/19 05:16:02;;;;;;;13.70;9.10;;;;;;;15.27;62.96;99669.58;106915;1261;60061;-39
2023/09/19 05:18:31;;;;;;;15.30;9.90;;;;;;;15.33;63.18;99673.27;106928;1260;60021;-40
2023/09/19 05:21:02;;;;;;;11.70;9.40;;;;;;;15.39;63.09;99669.63;106906;1263;73119;-40
2023/09/19 05:23:29;;;;;;;12.80;9.20;;;;;;;15.44;62.76;99670.73;107090;1260;67543;-39
2023/09/19 05:25:59;;;;;;;14.20;9.30;;;;;;;15.48;62.58;99668.98;106931;1260;71383;-40
2023/09/19 05:28:27;;;;;;;14.20;9.40;;;;;;;15.52;62.37;99671.91;107037;1260;60065;-40
2023/09/19 05:30:55;;;;;;;11.30;9.10;;;;;;;15.54;62.31;99672.69;106883;1260;59692;-37
2023/09/19 05:33:23;;;;;;;14.40;9.80;;;;;;;15.58;62.11;99673.02;107018;1260;73015;-39
2023/09/19 05:35:50;;;;;;;14.50;9.60;;;;;;;15.60;61.52;99670.67;106857;1260;67889;-38
2023/09/19 05:38:20;;;;;;;12.20;9.50;;;;;;;15.61;61.43;99673.80;106999;1260;72761;-39
2023/09/19 05:40:47;;;;;;;18.90;9.90;;;;;;;15.62;61.41;99674.52;106977;1260;60138;-39
2023/09/19 05:43:15;;;;;;;15.80;9.90;;;;;;;15.65;61.46;99677.17;107012;1261;60034;-39
2023/09/19 05:45:43;;;;;;;15.00;8.90;;;;;;;15.72;61.49;99679.70;106859;1263;73192;-39
2023/09/19 05:48:15;;;;;;;11.50;9.60;;;;;;;15.83;61.53;99684.73;106865;1263;68264;-39
2023/09/19 05:50:44;;;;;;;14.10;8.90;;;;;;;15.91;61.33;99687.09;106961;1263;71484;-39
2023/09/19 05:53:14;;;;;;;12.10;9.10;;;;;;;15.97;61.29;99687.89;107120;1260;60082;-39
2023/09/19 05:55:43;;;;;;;14.10;9.40;;;;;;;16.04;61.19;99687.91;107173;1257;60046;-39
2023/09/19 05:58:14;;;;;;;11.20;9.10;;;;;;;16.13;61.43;99687.61;107208;1257;73160;-39
2023/09/19 06:00:44;;;;;;;14.30;9.40;;;;;;;16.21;61.11;99680.13;107224;1257;67658;-39
2023/09/19 06:03:12;;;;;;;12.30;9.30;;;;;;;16.28;61.09;99682.47;107207;1257;72697;-40
2023/09/19 06:05:40;;;;;;;14.60;9.30;;;;;;;16.34;60.99;99685.22;107207;1257;59511;-40
2023/09/19 06:08:09;;;;;;;12.60;9.30;;;;;;;16.40;60.92;99684.44;107258;1257;60077;-40
2023/09/19 06:10:36;;;;;;;16.30;9.10;;;;;;;16.47;60.97;99683.81;107257;1260;73075;-40
2023/09/19 06:13:05;;;;;;;12.60;9.30;;;;;;;16.55;61.04;99684.37;107215;1257;67556;-40
2023/09/19 06:15:35;;;;;;;14.00;9.50;;;;;;;16.63;60.98;99684.31;107190;1257;72636;-40
2023/09/19 06:18:04;;;;;;;20.60;10.00;;;;;;;16.70;60.68;99681.80;107244;1258;59630;-40
2023/09/19 06:20:33;;;;;;;13.80;9.90;;;;;;;16.80;60.76;99685.08;107119;1257;60126;-38
2023/09/19 06:23:02;;;;;;;11.30;9.10;;;;;;;16.89;60.54;99680.77;107124;1257;73057;-39
2023/09/19 06:25:29;;;;;;;11.60;8.00;;;;;;;17.03;60.02;99681.21;107021;1257;67630;-39
2023/09/19 06:27:57;;;;;;;10.10;8.10;;;;;;;17.18;59.69;99681.73;107229;1257;72663;-39
2023/09/19 06:30:26;;;;;;;12.70;8.30;;;;;;;17.30;59.70;99685.69;107232;1257;59943;-39
2023/09/19 06:32:57;;;;;;;12.50;8.70;;;;;;;17.41;59.42;99679.61;107141;1257;60028;-38
2023/09/19 06:35:26;;;;;;;11.60;8.40;;;;;;;17.53;58.89;99679.25;107206;1257;73053;-39
2023/09/19 06:37:54;;;;;;;11.00;8.90;;;;;;;17.63;58.61;99671.40;107206;1257;66198;-39
2023/09/19 06:40:22;;;;;;;9.70;8.40;;;;;;;17.73;58.56;99675.98;107207;1257;71692;-39
2023/09/19 06:42:53;;;;;;;12.10;8.70;;;;;;;17.83;58.06;99678.91;107182;1257;60190;-39
2023/09/19 06:45:21;;;;;;;13.70;8.60;;;;;;;17.92;58.07;99678.45;107241;1257;60020;-39
2023/09/19 06:47:50;;;;;;;10.30;8.30;;;;;;;18.02;57.61;99679.90;107250;1257;71754;-40
2023/09/19 06:50:22;;;;;;;9.30;8.30;;;;;;;18.11;57.76;99682.34;107240;1256;66652;-40
2023/09/19 06:52:51;;;;;;;11.40;7.90;;;;;;;18.22;57.64;99677.02;107278;1257;72649;-40
2023/09/19 06:55:20;;;;;;;10.60;7.90;;;;;;;18.31;57.60;99678.91;107261;1261;59666;-40
2023/09/19 06:57:48;;;;;;;13.00;9.80;;;;;;;18.41;57.33;99676.72;107366;1256;59640;-40
2023/09/19 07:00:18;;;;;;;11.10;8.40;;;;;;;18.52;57.16;99682.77;107237;1257;73053;-40
2023/09/19 07:03:00;;;;;;;9.80;7.80;;;;;;;18.63;57.02;99680.17;107264;1257;67671;-40
2023/09/19 07:05:28;;;;;;;12.10;8.20;;;;;;;18.74;56.80;99682.11;107230;1257;72638;-39
2023/09/19 07:07:58;;;;;;;10.20;7.70;;;;;;;18.82;56.58;99683.38;107241;1257;60080;-40
2023/09/19 07:10:30;;;;;;;10.80;8.40;;;;;;;18.91;56.53;99682.11;107254;1257;60139;-39
2023/09/19 07:12:58;;;;;;;11.50;7.50;;;;;;;19.01;56.45;99680.05;107278;1257;73785;-40
2023/09/19 07:15:26;;;;;;;8.90;7.50;;;;;;;19.14;56.31;99679.36;107258;1257;67590;-39
2023/09/19 07:17:55;;;;;;;13.30;7.90;;;;;;;19.25;56.08;99679.88;107225;1257;72813;-39
2023/09/19 07:20:29;;;;;;;12.60;8.30;;;;;;;19.35;56.02;99673.87;107189;1257;59615;-39
2023/09/19 07:23:00;;;;;;;11.00;7.40;;;;;;;19.47;55.79;99669.81;107274;1257;59402;-39
2023/09/19 07:25:29;;;;;;;8.90;7.70;;;;;;;19.61;54.90;99673.02;107312;1257;72874;-39
2023/09/19 07:27:59;;;;;;;10.10;7.50;;;;;;;19.73;52.99;99667.13;107251;1257;67569;-39
2023/09/19 07:30:28;;;;;;;14.50;12.30;;;;;;;19.85;53.25;99665.96;107276;1257;72699;-39
2023/09/19 07:32:57;;;;;;;10.90;7.40;;;;;;;19.96;52.23;99662.02;107256;1257;60026;-39
2023/09/19 07:35:25;;;;;;;11.80;7.30;;;;;;;20.08;52.36;99663.10;107256;1257;59986;-39
2023/09/19 07:37:53;;;;;;;7.30;6.30;;;;;;;20.21;52.01;99654.26;107257;1256;73091;-38
2023/09/19 07:40:21;;;;;;;8.70;6.60;;;;;;;20.34;51.82;99650.67;107291;1257;67785;-39
2023/09/19 07:42:50;;;;;;;6.90;6.00;;;;;;;20.49;50.54;99648.80;107231;1257;72712;-39
2023/09/19 07:45:18;;;;;;;13.10;6.60;;;;;;;20.62;50.26;99650.39;107252;1257;60109;-38
2023/09/19 07:47:50;;;;;;;7.50;6.30;;;;;;;20.75;49.45;99642.76;107262;1257;59599;-39
2023/09/19 07:50:18;;;;;;;6.10;5.00;;;;;;;20.87;48.48;99638.29;107250;1256;71923;-39
2023/09/19 07:52:47;;;;;;;9.50;5.50;;;;;;;20.92;46.34;99630.80;107286;1257;67932;-38
2023/09/19 07:55:19;;;;;;;6.50;4.90;;;;;;;21.06;45.30;99632.09;107267;1257;72693;-39
2023/09/19 07:57:47;;;;;;;8.00;4.10;;;;;;;21.14;43.26;99628.16;107203;1257;60555;-39
2023/09/19 08:00:15;;;;;;;5.70;4.30;;;;;;;21.24;42.45;99632.48;107200;1257;59504;-39
2023/09/19 08:02:43;;;;;;;7.10;4.20;;;;;;;21.35;41.35;99629.50;107253;1257;71822;-39
2023/09/19 08:05:15;;;;;;;5.10;4.10;;;;;;;21.44;41.62;99624.98;107246;1257;67595;-39
2023/09/19 08:07:52;;;;;;;8.50;4.80;;;;;;;21.56;41.17;99618.88;107277;1257;71425;-39
2023/09/19 08:10:20;;;;;;;5.10;4.30;;;;;;;21.66;40.97;99618.03;107286;1257;60134;-39
2023/09/19 08:12:49;;;;;;;11.20;4.10;;;;;;;21.74;40.77;99612.03;107253;1257;59526;-39
2023/09/19 08:15:19;;;;;;;5.10;3.60;;;;;;;21.83;40.30;99610.48;107243;1256;73016;-39
2023/09/19 08:17:48;;;;;;;6.50;3.70;;;;;;;21.92;39.68;99605.08;107259;1257;68475;-39
2023/09/19 08:20:19;;;;;;;5.60;4.00;;;;;;;22.03;39.12;99601.59;107332;1257;72723;-39
2023/09/19 08:22:48;;;;;;;7.50;3.90;;;;;;;22.14;38.78;99599.60;107234;1257;59426;-39
2023/09/19 08:25:17;;;;;;;4.20;3.60;;;;;;;22.19;38.79;99587.41;107337;1257;59499;-39
2023/09/19 08:27:49;;;;;;;;;;;;;;;22.34;38.45;99597.21;107288;1257;73136;-39
2023/09/19 08:30:23;;;;;;;5.30;3.40;;;;;;;22.42;37.69;99593.23;107259;1257;68570;-39
2023/09/19 08:32:59;;;;;;;5.60;3.80;;;;;;;22.49;37.36;99590.66;107292;1257;71409;-40
2023/09/19 08:35:27;;;;;;;5.40;3.30;;;;;;;22.58;37.56;99579.06;107221;1257;59622;-39
2023/09/19 08:37:55;;;;;;;5.00;3.60;;;;;;;22.68;37.32;99579.52;107268;1256;59564;-39
2023/09/19 08:40:24;;;;;;;7.80;3.60;;;;;;;22.78;37.20;99578.48;107254;1257;73042;-39
2023/09/19 08:42:54;;;;;;;5.30;3.60;;;;;;;22.89;37.28;99576.77;107244;1260;67386;-39
2023/09/19 08:45:27;;;;;;;8.30;3.30;;;;;;;22.99;36.18;99578.45;107275;1261;71404;-39
2023/09/19 08:48:13;;;;;;;5.80;3.30;;;;;;;23.08;35.11;99572.44;107231;1256;59598;-39
2023/09/19 08:50:52;;;;;;;6.50;3.50;;;;;;;23.14;34.93;99574.26;107207;1259;61020;-39
2023/09/19 08:53:31;;;;;;;6.90;3.70;;;;;;;23.15;34.89;99575.37;107267;1257;74209;-40
2023/09/19 08:56:03;;;;;;;12.30;4.10;;;;;;;23.18;34.80;99570.55;107273;1257;67728;-38
2023/09/19 08:58:35;;;;;;;5.20;3.30;;;;;;;23.23;34.83;99563.30;107218;1257;71495;-39
2023/09/19 09:01:04;;;;;;;5.70;3.80;;;;;;;23.26;34.99;99568.12;107292;1257;60498;-38
2023/09/19 09:03:32;;;;;;;6.60;4.10;;;;;;;23.30;35.39;99561.44;107039;1256;61323;-39
2023/09/19 09:06:01;;;;;;;4.80;3.30;;;;;;;23.39;35.52;99558.33;107267;1257;74562;-39
2023/09/19 09:08:30;;;;;;;6.00;3.60;;;;;;;23.51;35.21;99562.98;107277;1257;67779;-39
2023/09/19 09:10:58;;;;;;;10.50;3.60;;;;;;;23.63;34.98;99559.29;107266;1257;72794;-39
2023/09/19 09:13:28;;;;;;;10.80;3.90;;;;;;;23.71;34.37;99556.80;107251;1257;60655;-38
2023/09/19 09:15:56;;;;;;;6.40;3.90;;;;;;;23.79;34.48;99554.34;107148;1262;60467;-39
2023/09/19 09:18:24;;;;;;;6.30;3.40;;;;;;;23.89;34.22;99549.52;107222;1257;73496;-39
2023/09/19 09:20:51;;;;;;;9.00;3.50;;;;;;;23.96;33.95;99548.90;107281;1257;67611;-39
2023/09/19 09:23:21;;;;;;;7.60;3.40;;;;;;;24.03;33.31;99550.39;107124;1258;71724;-39
2023/09/19 09:26:02;;;;;;;6.70;3.60;;;;;;;24.10;33.37;99553.64;107243;1257;60968;-39
2023/09/19 09:28:31;;;;;;;6.00;3.40;;;;;;;24.17;32.99;99563.70;107246;1257;60551;-39
2023/09/19 09:30:59;;;;;;;8.50;3.70;;;;;;;24.21;32.89;99545.40;107257;1257;75515;-38
2023/09/19 09:33:28;;;;;;;7.60;3.30;;;;;;;24.21;33.01;99549.83;107325;1257;69001;-39
2023/09/19 09:35:58;;;;;;;7.30;3.80;;;;;;;24.23;32.62;99546.27;107224;1257;71573;-39
2023/09/19 09:38:27;;;;;;;9.90;3.20;;;;;;;24.28;32.78;99543.04;107247;1257;60745;-39
2023/09/19 09:41:06;;;;;;;7.20;3.40;;;;;;;24.33;33.09;99543.16;107218;1257;60527;-39
2023/09/19 09:43:35;;;;;;;5.40;3.40;;;;;;;24.39;32.74;99543.66;107249;1257;73943;-40
2023/09/19 09:49:26;;;;;;;8.60;3.60;;;;;;;24.46;32.21;99547.78;106977;1257;72796;-39
2023/09/19 09:52:16;;;;;;;8.40;3.40;;;;;;;24.44;32.41;99543.23;107253;1257;60569;-40
2023/09/19 09:55:05;;;;;;;8.20;3.30;;;;;;;24.48;32.71;99549.13;107259;1257;62169;-39
2023/09/19 09:57:34;;;;;;;5.50;3.80;;;;;;;24.56;32.74;99544.36;107271;1257;72619;-40
2023/09/19 10:02:42;;;;;;;11.50;4.00;;;;;;;24.74;32.93;99545.92;107254;1257;71256;-40
2023/09/19 10:07:53;;;;;;;8.40;3.60;;;;;;;24.93;32.15;99547.63;107290;1257;60552;-38
2023/09/19 10:10:45;;;;;;;4.90;3.20;;;;;;;25.01;32.05;99546.63;107229;1257;73848;-39
2023/09/19 10:13:14;;;;;;;5.10;3.90;;;;;;;25.09;32.45;99533.40;107298;1257;67891;-40
2023/09/19 10:15:50;;;;;;;8.10;3.30;;;;;;;25.17;31.69;99530.57;107280;1260;73044;-40
2023/09/19 10:18:27;;;;;;;5.30;3.60;;;;;;;25.28;32.34;99533.25;107285;1257;62362;-39
2023/09/19 10:20:56;;;;;;;5.20;3.60;;;;;;;25.40;32.01;99534.67;107252;1257;60389;-39
2023/09/19 10:23:29;;;;;;;7.90;3.70;;;;;;;25.52;31.57;99528.58;107280;1257;76347;-40
2023/09/19 10:25:58;;;;;;;8.10;3.60;;;;;;;25.61;31.25;99535.64;107147;1257;70156;-40
2023/09/19 10:28:27;;;;;;;6.80;3.40;;;;;;;25.60;30.90;99527.11;107271;1257;72794;-40
2023/09/19 10:30:56;;;;;;;5.00;3.40;;;;;;;25.58;31.21;99527.48;107198;1258;60433;-40
2023/09/19 10:33:29;;;;;;;8.40;3.30;;;;;;;25.61;31.13;99523.02;107365;1257;60329;-40
2023/09/19 10:35:59;;;;;;;9.20;3.60;;;;;;;25.67;30.77;99518.82;107199;1261;73950;-39
2023/09/19 10:38:28;;;;;;;7.30;3.20;;;;;;;25.72;30.75;99521.92;107289;1257;66874;-39
2023/09/19 10:41:00;;;;;;;5.40;3.40;;;;;;;25.77;31.23;99514.26;107280;1258;72785;-40
2023/09/19 10:43:32;;;;;;;5.80;3.70;;;;;;;25.94;30.88;99504.86;107256;1257;60329;-39
2023/09/19 10:46:07;;;;;;;8.80;3.50;;;;;;;26.07;30.28;99494.99;107219;1257;60861;-40
2023/09/19 10:48:35;;;;;;;7.50;3.30;;;;;;;26.17;30.75;99493.55;107277;1257;73036;-40
2023/09/19 10:51:09;;;;;;;5.90;3.50;;;;;;;26.33;30.57;99495.96;107179;1257;67963;-40
2023/09/19 10:53:54;;;;;;;4.50;3.50;;;;;;;26.53;30.30;99501.01;107215;1256;72826;-40
2023/09/19 10:56:32;;;;;;;4.80;3.20;;;;;;;26.63;30.00;99492.11;107252;1257;60563;-39
2023/09/19 10:59:12;;;;;;;7.30;3.60;;;;;;;26.70;30.00;99494.19;107209;1257;60583;-40
2023/09/19 11:01:47;;;;;;;;;;;;;;;26.81;30.49;99490.06;107225;1257;74318;-40
2023/09/19 11:04:38;;;;;;;7.90;3.70;;;;;;;26.92;30.39;99489.16;107221;1257;66791;-40
2023/09/19 11:07:11;;;;;;;6.90;3.70;;;;;;;27.05;30.40;99484.02;107028;1259;72731;-40
2023/09/19 11:09:53;;;;;;;10.70;3.70;;;;;;;27.13;30.30;99476.59;107191;1257;60479;-40
2023/09/19 11:12:53;;;;;;;10.50;3.90;;;;;;;27.20;30.53;99474.67;107203;1257;61085;-40
2023/09/19 11:15:56;;;;;;;4.70;3.30;;;;;;;27.33;30.08;99463.48;107210;1257;73996;-40
2023/09/19 11:18:42;;;;;;;7.70;3.60;;;;;;;27.46;29.98;99458.33;107255;1257;67600;-40
2023/09/19 11:21:32;;;;;;;8.20;3.60;;;;;;;27.62;30.13;99457.45;107192;1257;74781;-41
2023/09/19 11:24:10;;;;;;;4.70;3.40;;;;;;;27.83;29.87;99454.51;107210;1257;60342;-40
2023/09/19 11:26:47;;;;;;;6.50;3.60;;;;;;;27.98;29.68;99446.41;107233;1257;61042;-40
2023/09/19 11:29:29;;;;;;;7.10;3.40;;;;;;;28.14;29.42;99442.28;107217;1257;73875;-40
2023/09/19 11:31:59;;;;;;;6.70;3.40;;;;;;;28.27;28.18;99440.36;107269;1257;66648;-40
2023/09/19 11:34:39;;;;;;;6.40;3.30;;;;;;;28.34;27.36;99440.77;107224;1263;71390;-41
2023/09/19 11:37:11;;;;;;;8.00;3.40;;;;;;;28.43;27.37;99443.25;107219;1257;60534;-40
2023/09/19 11:39:42;;;;;;;7.90;3.50;;;;;;;28.51;27.14;99440.63;107224;1257;60320;-40
2023/09/19 11:42:53;;;;;;;9.10;3.60;;;;;;;28.61;26.84;99448.19;107221;1257;74035;-40
2023/09/19 11:45:45;;;;;;;6.60;3.30;;;;;;;28.63;26.62;99440.39;106727;1265;66674;-41